Time;durP1;ratioP1;P1;durP2;ratioP2;P2;SDS_P1;SDS_P2;PMS_P1;PMS_P2;Temp;Humidity;BMP_temperature;BMP_pressure;BME280_temperature;BME280_humidity;BME280_pressure;Samples;Min_cycle;Max_cycle;Signal;HPM_P1;HPM_P2
2023/12/31 00:00:43;;;;;;;8.45;3.47;;;8.30;99.90;;;;;;5054765;28;20049;-73
2023/12/31 00:03:10;;;;;;;5.03;3.28;;;8.30;99.90;;;;;;5051624;28;20109;-73
2023/12/31 00:05:37;;;;;;;4.45;3.42;;;8.30;99.90;;;;;;5051079;28;20491;-73
2023/12/31 00:08:04;;;;;;;5.82;3.38;;;8.30;99.90;;;;;;5052517;28;20107;-73
2023/12/31 00:10:33;;;;;;;8.05;3.65;;;8.40;99.90;;;;;;5052418;28;20487;-73
2023/12/31 00:12:59;;;;;;;5.15;3.38;;;8.40;99.90;;;;;;5056664;28;20048;-73
2023/12/31 00:15:26;;;;;;;6.22;3.28;;;8.40;99.90;;;;;;5055873;28;20513;-73
2023/12/31 00:17:53;;;;;;;7.38;3.20;;;8.40;99.90;;;;;;5054481;28;20072;-73
2023/12/31 00:20:20;;;;;;;4.90;2.75;;;8.40;99.90;;;;;;5056157;28;20048;-73
2023/12/31 00:22:47;;;;;;;6.95;3.28;;;8.40;99.90;;;;;;5056438;28;20423;-73
2023/12/31 00:25:14;;;;;;;5.15;2.90;;;8.40;99.90;;;;;;5057267;28;20450;-73
2023/12/31 00:27:42;;;;;;;8.00;2.92;;;8.50;99.90;;;;;;5056796;28;20049;-73
2023/12/31 00:30:11;;;;;;;5.50;2.80;;;8.50;99.90;;;;;;5055679;28;20495;-73
2023/12/31 00:32:38;;;;;;;5.82;2.55;;;8.50;99.90;;;;;;5055209;28;20044;-74
2023/12/31 00:35:06;;;;;;;5.80;2.80;;;8.50;99.90;;;;;;5057470;28;20544;-73
2023/12/31 00:37:32;;;;;;;8.25;2.65;;;8.50;99.90;;;;;;5054637;28;20052;-72
2023/12/31 00:39:59;;;;;;;3.85;2.30;;;8.50;99.90;;;;;;5057673;28;20049;-73
2023/12/31 00:42:26;;;;;;;4.50;2.85;;;8.50;99.90;;;;;;5055477;28;20036;-74
2023/12/31 00:44:54;;;;;;;3.65;2.17;;;8.60;99.90;;;;;;5055692;28;20106;-74
2023/12/31 00:47:21;;;;;;;3.65;2.42;;;8.60;99.90;;;;;;5054676;28;20044;-73
2023/12/31 00:49:48;;;;;;;10.52;3.03;;;8.60;99.90;;;;;;5056152;28;20049;-74
2023/12/31 00:52:15;;;;;;;6.68;2.85;;;8.50;99.90;;;;;;5054395;28;20044;-73
2023/12/31 00:54:42;;;;;;;5.82;2.80;;;8.50;99.90;;;;;;5053783;28;20053;-73
2023/12/31 00:57:09;;;;;;;5.18;2.00;;;8.50;99.90;;;;;;5055231;28;20071;-73
2023/12/31 00:59:36;;;;;;;4.25;1.92;;;8.50;99.90;;;;;;5053779;28;20485;-74
2023/12/31 01:02:04;;;;;;;2.83;1.98;;;8.50;99.90;;;;;;5055417;28;20049;-72
2023/12/31 01:04:31;;;;;;;4.10;2.20;;;8.40;99.90;;;;;;5070571;28;20061;-73
2023/12/31 01:06:58;;;;;;;4.40;2.20;;;8.40;99.90;;;;;;5054846;28;20510;-73
2023/12/31 01:09:27;;;;;;;3.78;2.35;;;8.40;99.90;;;;;;5054391;28;20057;-73
2023/12/31 01:11:54;;;;;;;4.93;1.85;;;8.40;99.90;;;;;;5056059;28;20495;-73
2023/12/31 01:14:20;;;;;;;4.50;2.40;;;8.30;99.90;;;;;;5068337;28;20086;-73
2023/12/31 01:16:47;;;;;;;3.50;2.10;;;8.40;99.90;;;;;;5078650;28;20037;-73
2023/12/31 01:19:16;;;;;;;5.47;2.38;;;8.40;99.90;;;;;;5059730;28;20127;-73
2023/12/31 01:21:43;;;;;;;6.32;2.17;;;8.40;99.90;;;;;;5049873;28;20439;-73
2023/12/31 01:24:10;;;;;;;4.80;2.13;;;8.30;99.90;;;;;;5054965;28;20090;-74
2023/12/31 01:26:37;;;;;;;5.97;2.10;;;8.40;99.90;;;;;;5053253;28;20083;-73
2023/12/31 01:29:04;;;;;;;3.38;2.17;;;8.40;99.90;;;;;;5055251;28;20064;-73
2023/12/31 01:31:30;;;;;;;4.32;1.90;;;8.40;99.90;;;;;;5055096;28;20095;-72
2023/12/31 01:33:57;;;;;;;3.30;2.15;;;8.40;99.90;;;;;;5054379;28;20084;-73
2023/12/31 01:36:26;;;;;;;4.88;2.22;;;8.30;99.90;;;;;;5055087;28;20355;-72
2023/12/31 01:38:53;;;;;;;4.53;2.20;;;8.30;99.90;;;;;;5057206;28;20460;-73
2023/12/31 01:41:20;;;;;;;5.43;2.38;;;8.20;99.90;;;;;;5054309;28;20117;-73
2023/12/31 01:43:49;;;;;;;4.32;2.38;;;8.20;99.90;;;;;;5055008;28;20515;-73
2023/12/31 01:46:28;;;;;;;3.83;2.33;;;8.10;99.90;;;;;;5054632;28;20049;-72
2023/12/31 01:48:55;;;;;;;5.20;2.65;;;8.00;99.90;;;;;;5053518;28;20113;-73
2023/12/31 01:51:23;;;;;;;4.47;2.20;;;8.00;99.90;;;;;;5054058;28;20563;-73
2023/12/31 01:53:51;;;;;;;7.07;3.63;;;8.00;99.90;;;;;;5055824;28;20102;-73
2023/12/31 01:56:19;;;;;;;4.40;2.65;;;7.90;99.90;;;;;;5055247;28;20052;-73
2023/12/31 01:58:47;;;;;;;4.22;2.20;;;7.90;99.90;;;;;;5053385;28;20040;-72
2023/12/31 02:01:14;;;;;;;7.20;2.83;;;7.90;99.90;;;;;;5054232;28;20056;-72
2023/12/31 02:03:41;;;;;;;2.90;1.98;;;7.80;99.90;;;;;;5055521;28;20121;-72
2023/12/31 02:06:08;;;;;;;4.13;2.10;;;7.80;99.90;;;;;;5042387;28;20091;-72
2023/12/31 02:08:37;;;;;;;4.13;2.15;;;7.80;99.90;;;;;;5054682;28;20106;-73
2023/12/31 02:11:06;;;;;;;3.47;1.95;;;7.80;99.90;;;;;;5056933;28;20099;-73
2023/12/31 02:13:33;;;;;;;5.10;2.05;;;7.80;99.90;;;;;;5055825;28;20102;-73
2023/12/31 02:16:00;;;;;;;3.70;1.98;;;7.80;99.90;;;;;;5072718;28;20114;-73
2023/12/31 02:18:27;;;;;;;3.10;1.90;;;7.70;99.90;;;;;;5072944;28;20201;-73
2023/12/31 02:20:53;;;;;;;3.67;2.05;;;7.80;99.90;;;;;;5054481;28;20102;-72
2023/12/31 02:23:20;;;;;;;5.10;1.80;;;7.90;99.90;;;;;;5053613;28;20052;-73
2023/12/31 02:26:03;;;;;;;2.78;1.90;;;7.80;99.90;;;;;;5052352;28;20048;-73
2023/12/31 02:28:30;;;;;;;4.32;1.48;;;7.70;99.90;;;;;;5053101;28;20406;-72
2023/12/31 02:30:57;;;;;;;2.95;1.88;;;7.80;99.90;;;;;;5053427;28;20049;-73
2023/12/31 02:33:23;;;;;;;4.35;1.85;;;7.80;99.90;;;;;;5054351;28;20133;-73
2023/12/31 02:35:50;;;;;;;2.55;1.65;;;7.80;99.90;;;;;;5072731;28;20048;-73
2023/12/31 02:38:17;;;;;;;2.75;1.63;;;7.80;99.90;;;;;;5051758;28;20057;-73
2023/12/31 02:40:44;;;;;;;3.63;2.00;;;7.80;99.90;;;;;;5053565;28;20052;-73
2023/12/31 02:43:12;;;;;;;2.75;1.70;;;7.90;99.90;;;;;;5051516;28;20044;-73
2023/12/31 02:45:39;;;;;;;4.82;2.05;;;7.90;99.90;;;;;;5052001;28;20045;-73
2023/12/31 02:48:06;;;;;;;3.08;1.92;;;7.90;99.90;;;;;;5054900;28;20125;-73
2023/12/31 02:50:34;;;;;;;5.15;1.88;;;7.90;99.90;;;;;;5052452;28;20044;-73
2023/12/31 02:53:00;;;;;;;2.63;1.60;;;7.90;99.90;;;;;;5052551;28;20056;-73
2023/12/31 02:55:27;;;;;;;2.83;1.70;;;7.90;99.90;;;;;;5052776;28;20048;-73
2023/12/31 02:57:54;;;;;;;3.15;1.60;;;7.90;99.90;;;;;;5068312;28;20442;-74
2023/12/31 03:00:22;;;;;;;2.92;1.30;;;7.90;99.90;;;;;;5052548;28;20052;-73
2023/12/31 03:02:49;;;;;;;3.40;1.77;;;7.90;99.90;;;;;;5053498;28;20045;-73
2023/12/31 03:05:16;;;;;;;4.43;1.85;;;7.90;99.90;;;;;;5051810;28;20045;-72
2023/12/31 03:07:43;;;;;;;3.17;1.60;;;7.90;99.90;;;;;;5070415;28;20045;-72
2023/12/31 03:10:10;;;;;;;4.97;1.65;;;7.90;99.90;;;;;;5053777;28;20056;-72
2023/12/31 03:12:37;;;;;;;2.55;1.27;;;7.90;99.90;;;;;;5060509;28;20485;-72
2023/12/31 03:15:05;;;;;;;3.95;1.77;;;8.10;99.90;;;;;;5061240;28;20052;-72
2023/12/31 03:17:33;;;;;;;3.10;1.50;;;7.80;99.90;;;;;;5073258;28;20047;-73
2023/12/31 03:20:00;;;;;;;2.22;1.50;;;7.90;99.90;;;;;;5050722;28;20559;-73
2023/12/31 03:22:26;;;;;;;2.65;1.38;;;7.90;99.90;;;;;;5051787;28;20492;-72
2023/12/31 03:24:53;;;;;;;2.92;1.45;;;7.90;99.90;;;;;;5054652;28;20488;-73
2023/12/31 03:27:20;;;;;;;4.82;1.80;;;7.90;99.90;;;;;;5062172;28;20569;-73
2023/12/31 03:29:47;;;;;;;3.08;1.60;;;7.90;99.90;;;;;;5048740;28;20093;-73
2023/12/31 03:32:14;;;;;;;3.20;1.73;;;7.90;99.90;;;;;;5052018;28;20055;-73
2023/12/31 03:34:42;;;;;;;3.85;1.58;;;7.90;99.90;;;;;;5050325;28;20495;-73
2023/12/31 03:37:09;;;;;;;4.15;1.55;;;7.90;99.90;;;;;;5051557;28;20052;-73
2023/12/31 03:39:36;;;;;;;2.80;1.55;;;7.90;99.90;;;;;;5052311;28;20052;-72
2023/12/31 03:42:03;;;;;;;4.03;1.60;;;7.90;99.90;;;;;;5050772;28;20057;-72
2023/12/31 03:44:30;;;;;;;3.40;1.80;;;7.90;99.90;;;;;;5052875;28;20124;-72
2023/12/31 03:46:56;;;;;;;3.50;1.55;;;7.90;99.90;;;;;;5049922;28;20106;-72
2023/12/31 03:49:23;;;;;;;2.85;1.50;;;7.90;99.90;;;;;;5052096;28;20531;-72
2023/12/31 03:51:52;;;;;;;2.50;1.40;;;7.90;99.90;;;;;;5051151;28;20103;-72
2023/12/31 03:54:18;;;;;;;2.60;1.52;;;7.90;99.90;;;;;;5053296;28;20044;-72
2023/12/31 03:56:45;;;;;;;4.32;1.88;;;7.90;99.90;;;;;;5050289;28;20044;-72
2023/12/31 03:59:12;;;;;;;4.07;1.70;;;7.90;99.90;;;;;;5053862;28;20048;-73
2023/12/31 04:01:44;;;;;;;5.60;1.70;;;7.90;99.90;;;;;;5050210;28;20113;-72
2023/12/31 04:04:11;;;;;;;2.72;1.40;;;7.90;99.90;;;;;;5052308;28;20148;-72
2023/12/31 04:06:38;;;;;;;3.10;1.77;;;7.90;99.90;;;;;;5051867;28;20094;-73
2023/12/31 04:09:06;;;;;;;3.75;1.70;;;7.90;99.90;;;;;;5050169;28;20492;-72
2023/12/31 04:11:33;;;;;;;3.00;1.73;;;7.90;99.90;;;;;;5053657;28;20110;-72
2023/12/31 04:14:00;;;;;;;3.15;1.65;;;7.90;99.90;;;;;;5052127;28;20053;-72
2023/12/31 04:16:27;;;;;;;5.78;1.75;;;8.00;99.90;;;;;;5050526;28;20052;-72
2023/12/31 04:18:54;;;;;;;3.10;1.50;;;8.00;99.90;;;;;;5049775;28;20045;-72
2023/12/31 04:21:21;;;;;;;3.13;1.60;;;8.00;99.90;;;;;;5051827;28;20076;-72
2023/12/31 04:23:48;;;;;;;3.47;1.77;;;8.00;99.90;;;;;;5051633;28;20044;-72
2023/12/31 04:26:16;;;;;;;3.22;1.67;;;8.00;99.90;;;;;;5051238;28;20389;-72
2023/12/31 04:28:43;;;;;;;4.85;1.80;;;8.00;99.90;;;;;;5051873;28;20098;-72
2023/12/31 04:31:10;;;;;;;2.58;1.45;;;8.00;99.90;;;;;;5050332;28;20962;-72
2023/12/31 04:33:37;;;;;;;2.10;1.38;;;8.10;99.90;;;;;;5051959;28;20049;-73
2023/12/31 04:36:05;;;;;;;2.30;1.40;;;8.00;99.90;;;;;;5053508;28;20098;-73
2023/12/31 04:38:32;;;;;;;2.80;1.45;;;8.10;99.90;;;;;;5053458;28;20052;-73
2023/12/31 04:40:59;;;;;;;4.47;1.75;;;8.10;99.90;;;;;;5050344;28;20049;-73
2023/12/31 04:43:27;;;;;;;4.30;1.70;;;8.00;99.90;;;;;;5050737;28;20098;-73
2023/12/31 04:45:54;;;;;;;3.45;1.50;;;8.00;99.90;;;;;;5050952;28;20138;-73
2023/12/31 04:48:21;;;;;;;4.10;1.60;;;8.00;99.90;;;;;;5033857;28;20061;-73
2023/12/31 04:50:49;;;;;;;3.22;1.80;;;7.90;99.90;;;;;;5033910;28;20107;-71
2023/12/31 04:53:20;;;;;;;2.88;1.80;;;7.90;99.90;;;;;;5052117;28;20049;-72
2023/12/31 04:55:47;;;;;;;5.20;1.90;;;7.80;99.90;;;;;;5034494;28;20099;-73
2023/12/31 04:58:14;;;;;;;3.80;2.28;;;7.80;99.90;;;;;;5037264;28;20080;-73
2023/12/31 05:00:43;;;;;;;3.35;1.67;;;7.90;99.90;;;;;;5037823;28;20084;-73
2023/12/31 05:03:10;;;;;;;2.88;1.60;;;7.90;99.90;;;;;;5048213;28;20086;-73
2023/12/31 05:05:36;;;;;;;3.22;1.90;;;7.90;99.90;;;;;;5056244;28;20098;-73
2023/12/31 05:08:04;;;;;;;2.72;1.70;;;7.90;99.90;;;;;;5058827;28;20049;-73
2023/12/31 05:10:30;;;;;;;4.03;2.03;;;7.90;99.90;;;;;;5061117;28;20048;-73
2023/12/31 05:12:58;;;;;;;3.13;1.75;;;7.90;99.90;;;;;;5059598;28;20549;-73
2023/12/31 05:15:25;;;;;;;4.82;1.67;;;7.90;99.90;;;;;;5055080;28;20049;-73
2023/12/31 05:17:53;;;;;;;3.55;1.75;;;7.90;99.90;;;;;;5053989;28;20450;-73
2023/12/31 05:20:20;;;;;;;4.47;1.67;;;7.90;99.90;;;;;;5054762;28;20094;-73
2023/12/31 05:22:47;;;;;;;3.00;1.80;;;7.90;99.90;;;;;;5053269;28;20053;-73
2023/12/31 05:25:14;;;;;;;4.85;1.67;;;8.00;99.90;;;;;;5054685;28;20097;-73
2023/12/31 05:27:41;;;;;;;4.60;1.55;;;8.00;99.90;;;;;;5052985;28;20053;-73
2023/12/31 05:30:09;;;;;;;2.78;1.75;;;8.10;99.90;;;;;;5056671;28;20109;-73
2023/12/31 05:32:37;;;;;;;5.43;1.80;;;8.00;99.90;;;;;;5052886;28;20083;-73
2023/12/31 05:35:06;;;;;;;2.70;1.80;;;8.00;99.90;;;;;;5053843;28;20056;-73
2023/12/31 05:37:33;;;;;;;8.05;2.25;;;8.10;99.90;;;;;;5055164;28;20086;-73
2023/12/31 05:40:00;;;;;;;2.70;1.70;;;8.10;99.90;;;;;;5053200;28;20126;-73
2023/12/31 05:42:27;;;;;;;4.00;1.80;;;8.10;99.90;;;;;;5054616;28;20044;-74
2023/12/31 05:44:54;;;;;;;3.75;1.70;;;8.10;99.90;;;;;;5053261;28;20105;-73
2023/12/31 05:47:21;;;;;;;3.35;1.75;;;8.10;99.90;;;;;;5053532;28;20500;-72
2023/12/31 05:49:47;;;;;;;3.42;1.77;;;8.10;99.90;;;;;;5052971;28;20049;-74
2023/12/31 05:52:16;;;;;;;4.80;1.88;;;8.10;99.90;;;;;;5053939;28;20101;-73
2023/12/31 05:54:43;;;;;;;3.63;2.20;;;8.10;99.90;;;;;;5054005;28;20041;-72
2023/12/31 05:57:09;;;;;;;3.05;2.28;;;8.10;99.90;;;;;;5055850;28;20064;-73
2023/12/31 05:59:36;;;;;;;3.83;1.58;;;8.00;99.90;;;;;;5054717;28;20057;-73
2023/12/31 06:02:03;;;;;;;2.88;1.80;;;8.10;99.90;;;;;;5052506;28;20056;-73
2023/12/31 06:04:30;;;;;;;5.40;1.80;;;8.10;99.90;;;;;;5056086;28;20048;-73
2023/12/31 06:06:57;;;;;;;4.72;2.30;;;8.10;99.90;;;;;;5052698;28;20102;-73
2023/12/31 06:09:26;;;;;;;2.97;1.80;;;8.10;99.90;;;;;;5054921;28;20052;-73
2023/12/31 06:11:53;;;;;;;3.85;1.85;;;7.30;99.90;;;;;;5054930;28;20079;-72
2023/12/31 06:14:21;;;;;;;4.47;2.03;;;8.10;99.90;;;;;;5054102;28;20485;-73
2023/12/31 06:16:46;;;;;;;4.80;2.38;;;8.10;99.90;;;;;;5053946;28;20053;-73
2023/12/31 06:19:13;;;;;;;3.08;1.85;;;8.10;99.90;;;;;;5053367;28;20403;-73
2023/12/31 06:21:40;;;;;;;3.72;1.98;;;8.20;99.90;;;;;;5053004;28;20048;-73
2023/12/31 06:24:07;;;;;;;3.42;1.92;;;8.20;99.90;;;;;;5055494;28;20101;-73
2023/12/31 06:26:35;;;;;;;2.95;1.77;;;8.20;99.90;;;;;;5072983;28;20384;-73
2023/12/31 06:29:02;;;;;;;4.30;2.47;;;8.30;99.90;;;;;;5051800;28;20052;-73
2023/12/31 06:31:29;;;;;;;4.55;1.92;;;8.20;99.90;;;;;;5053132;28;20561;-73
2023/12/31 06:33:56;;;;;;;3.28;2.00;;;8.20;99.90;;;;;;5055131;28;20381;-73
2023/12/31 06:36:23;;;;;;;4.30;2.20;;;8.20;99.90;;;;;;5052352;28;20045;-73
2023/12/31 06:38:50;;;;;;;3.97;1.90;;;8.20;99.90;;;;;;5053983;28;20052;-72
2023/12/31 06:41:20;;;;;;;4.72;2.35;;;8.20;99.90;;;;;;5055177;28;20052;-74
2023/12/31 06:43:48;;;;;;;2.80;1.85;;;8.20;99.90;;;;;;5052625;28;20135;-73
2023/12/31 06:46:15;;;;;;;3.63;2.10;;;8.30;99.90;;;;;;5053324;28;20118;-72
2023/12/31 06:48:42;;;;;;;3.28;1.80;;;8.30;99.90;;;;;;5056749;28;20053;-73
2023/12/31 06:51:09;;;;;;;3.72;2.13;;;8.30;99.90;;;;;;5070041;28;20419;-73
2023/12/31 06:53:36;;;;;;;4.03;2.28;;;8.30;99.90;;;;;;5052658;28;20052;-72
2023/12/31 06:56:04;;;;;;;4.15;2.17;;;8.30;99.90;;;;;;5053417;28;20455;-72
2023/12/31 06:58:31;;;;;;;2.80;2.00;;;8.30;99.90;;;;;;5054535;28;20139;-73
2023/12/31 07:00:59;;;;;;;5.47;2.00;;;8.30;99.90;;;;;;5053177;28;20102;-74
2023/12/31 07:03:26;;;;;;;4.10;2.00;;;8.40;99.90;;;;;;5052410;28;20463;-74
2023/12/31 07:05:53;;;;;;;3.88;2.03;;;8.40;99.90;;;;;;5053257;28;20044;-73
2023/12/31 07:08:20;;;;;;;3.30;2.10;;;8.40;99.90;;;;;;5053649;28;20056;-72
2023/12/31 07:10:47;;;;;;;4.97;2.65;;;8.40;99.90;;;;;;5053825;28;20052;-72
2023/12/31 07:13:14;;;;;;;2.65;1.70;;;8.30;99.90;;;;;;5052040;28;20124;-72
2023/12/31 07:15:44;;;;;;;2.88;2.10;;;8.40;99.90;;;;;;5052521;28;20098;-72
2023/12/31 07:18:12;;;;;;;3.53;2.13;;;8.40;99.90;;;;;;5052307;28;20461;-72
2023/12/31 07:20:39;;;;;;;4.15;2.25;;;8.30;99.90;;;;;;5051285;28;20048;-73
2023/12/31 07:23:06;;;;;;;3.53;2.15;;;8.30;99.90;;;;;;5054613;28;20056;-73
2023/12/31 07:25:33;;;;;;;4.20;2.42;;;8.30;99.90;;;;;;5071167;28;20088;-73
2023/12/31 07:28:00;;;;;;;4.10;2.25;;;8.30;99.90;;;;;;5054332;28;20044;-73
2023/12/31 07:30:27;;;;;;;4.30;2.22;;;8.30;99.90;;;;;;5051237;28;20048;-74
2023/12/31 07:32:54;;;;;;;3.50;2.05;;;8.30;99.90;;;;;;5052541;28;20102;-75
2023/12/31 07:35:22;;;;;;;4.40;2.35;;;8.30;99.90;;;;;;5051956;28;20040;-74
2023/12/31 07:37:49;;;;;;;3.88;2.53;;;8.30;99.90;;;;;;5052329;28;20110;-73
2023/12/31 07:40:16;;;;;;;5.85;2.50;;;8.40;99.90;;;;;;5052573;28;20385;-73
2023/12/31 07:42:43;;;;;;;3.70;2.30;;;8.40;99.90;;;;;;5051246;28;20048;-72
2023/12/31 07:45:10;;;;;;;6.18;2.03;;;8.40;99.90;;;;;;5052744;28;20113;-72
2023/12/31 07:47:39;;;;;;;2.85;1.95;;;8.50;99.90;;;;;;5050956;28;20514;-72
2023/12/31 07:50:06;;;;;;;4.30;2.15;;;8.50;99.90;;;;;;5052114;28;20229;-72
2023/12/31 07:52:35;;;;;;;7.68;2.20;;;8.50;99.90;;;;;;5050275;28;21514;-72
2023/12/31 07:55:03;;;;;;;3.45;2.00;;;8.50;99.90;;;;;;5049799;28;20044;-73
2023/12/31 07:57:31;;;;;;;3.20;2.30;;;8.50;99.90;;;;;;5050990;28;20044;-73
2023/12/31 07:59:57;;;;;;;3.80;2.60;;;8.40;99.90;;;;;;5051922;28;20091;-74
2023/12/31 08:02:24;;;;;;;5.45;2.20;;;8.50;99.90;;;;;;5048218;28;20053;-73
2023/12/31 08:04:51;;;;;;;3.17;2.03;;;8.50;99.90;;;;;;5062205;28;20051;-73
2023/12/31 08:07:18;;;;;;;5.43;2.13;;;8.50;99.90;;;;;;5052669;28;20052;-73
2023/12/31 08:09:46;;;;;;;3.50;2.50;;;8.50;99.90;;;;;;5052775;28;20052;-73
2023/12/31 08:12:13;;;;;;;6.78;2.33;;;8.60;99.90;;;;;;5052764;28;20061;-73
2023/12/31 08:14:40;;;;;;;3.00;1.80;;;8.60;99.90;;;;;;5052345;28;20068;-72
2023/12/31 08:17:08;;;;;;;3.97;2.28;;;8.60;99.90;;;;;;5050593;28;20129;-73
2023/12/31 08:19:35;;;;;;;3.25;2.10;;;8.60;99.90;;;;;;5053365;28;20384;-73
2023/12/31 08:22:02;;;;;;;4.90;2.58;;;8.60;99.90;;;;;;5039760;28;21067;-73
2023/12/31 08:24:28;;;;;;;4.13;2.42;;;8.70;99.90;;;;;;5052891;28;20073;-73
2023/12/31 08:26:57;;;;;;;3.47;2.25;;;8.60;99.90;;;;;;5052228;28;20044;-73
2023/12/31 08:29:23;;;;;;;3.30;2.13;;;8.70;99.90;;;;;;5050383;28;20487;-72
2023/12/31 08:31:52;;;;;;;4.45;2.25;;;8.60;99.90;;;;;;5052735;28;20403;-72
2023/12/31 08:34:19;;;;;;;7.97;2.30;;;8.70;99.90;;;;;;5054110;28;20087;-73
2023/12/31 08:36:46;;;;;;;4.30;2.40;;;8.70;99.90;;;;;;5054316;28;20063;-73
2023/12/31 08:39:13;;;;;;;3.53;2.60;;;8.60;99.90;;;;;;5056555;28;20052;-73
2023/12/31 08:41:40;;;;;;;3.75;2.25;;;8.70;99.90;;;;;;5063994;28;20484;-73
2023/12/31 08:44:08;;;;;;;4.20;2.58;;;8.60;99.90;;;;;;5053290;28;20103;-74
2023/12/31 08:46:35;;;;;;;3.30;2.20;;;8.70;99.90;;;;;;5063257;28;20040;-73
2023/12/31 08:49:02;;;;;;;3.78;2.25;;;8.60;99.90;;;;;;5053236;28;20060;-73
2023/12/31 08:51:30;;;;;;;3.45;2.03;;;8.70;99.90;;;;;;5055813;28;20193;-73
2023/12/31 08:53:57;;;;;;;4.85;2.33;;;8.70;99.90;;;;;;5055908;28;20483;-73
2023/12/31 08:56:24;;;;;;;3.92;2.47;;;8.70;99.90;;;;;;5053590;28;20045;-73
2023/12/31 08:58:50;;;;;;;4.07;2.33;;;8.70;99.90;;;;;;5056275;28;20102;-72
2023/12/31 09:01:19;;;;;;;3.72;2.25;;;8.80;99.90;;;;;;5054986;28;20079;-73
2023/12/31 09:03:46;;;;;;;6.72;2.63;;;8.80;99.90;;;;;;5059370;28;20052;-73
2023/12/31 09:06:13;;;;;;;6.68;2.80;;;8.90;99.90;;;;;;5056806;28;20097;-73
2023/12/31 09:08:39;;;;;;;3.83;2.17;;;8.90;99.90;;;;;;5052825;28;20069;-73
2023/12/31 09:11:06;;;;;;;4.63;2.80;;;8.90;99.90;;;;;;5055675;28;20052;-72
2023/12/31 09:13:33;;;;;;;2.60;1.77;;;9.00;99.90;;;;;;5056945;28;20045;-73
2023/12/31 09:16:00;;;;;;;4.55;2.40;;;8.90;99.90;;;;;;5053302;28;20045;-76
2023/12/31 09:18:28;;;;;;;4.65;2.65;;;8.90;99.90;;;;;;5052132;28;20496;-76
2023/12/31 09:20:55;;;;;;;4.90;2.15;;;8.90;99.90;;;;;;5054034;28;20049;-76
2023/12/31 09:23:22;;;;;;;3.70;2.25;;;8.90;99.90;;;;;;5055910;28;20048;-74
2023/12/31 09:25:49;;;;;;;3.92;2.20;;;8.90;99.90;;;;;;5053682;28;20117;-76
2023/12/31 09:28:17;;;;;;;3.75;2.28;;;8.90;99.90;;;;;;5052711;28;20103;-76
2023/12/31 09:30:44;;;;;;;5.78;2.10;;;8.90;99.90;;;;;;5055973;28;20056;-75
2023/12/31 09:33:11;;;;;;;5.30;2.63;;;9.00;99.90;;;;;;5052021;28;20102;-74
2023/12/31 09:35:39;;;;;;;5.53;2.45;;;9.00;99.90;;;;;;5053583;28;20450;-74
2023/12/31 09:38:06;;;;;;;3.63;2.30;;;8.90;99.90;;;;;;5050423;28;20114;-75
2023/12/31 09:40:33;;;;;;;5.50;2.20;;;8.90;99.90;;;;;;5051060;28;20370;-76
2023/12/31 09:43:03;;;;;;;3.60;2.20;;;9.00;99.90;;;;;;5070528;28;20056;-76
2023/12/31 09:45:31;;;;;;;3.70;2.25;;;9.00;99.90;;;;;;5046148;28;20040;-76
2023/12/31 09:47:59;;;;;;;5.65;2.70;;;9.00;99.90;;;;;;5045047;28;20061;-75
2023/12/31 09:50:26;;;;;;;7.05;4.05;;;9.00;99.90;;;;;;5045191;28;20155;-75
2023/12/31 09:52:56;;;;;;;3.90;2.35;;;9.00;99.90;;;;;;5042002;28;20049;-74
2023/12/31 09:55:25;;;;;;;3.35;2.35;;;9.10;99.90;;;;;;5046513;28;20046;-77
2023/12/31 09:57:53;;;;;;;6.22;3.13;;;9.10;99.90;;;;;;5040917;28;20052;-78
2023/12/31 10:00:21;;;;;;;5.07;3.15;;;9.10;99.90;;;;;;5034853;28;20045;-77
2023/12/31 10:02:51;;;;;;;4.53;2.30;;;9.10;99.90;;;;;;5047288;28;20041;-77
2023/12/31 10:05:20;;;;;;;4.78;2.22;;;9.10;99.90;;;;;;5037725;28;20563;-76
2023/12/31 10:07:48;;;;;;;3.83;2.10;;;9.10;99.90;;;;;;5033422;28;20493;-77
2023/12/31 10:10:17;;;;;;;4.97;3.90;;;9.20;99.90;;;;;;5044966;28;20589;-77
2023/12/31 10:12:44;;;;;;;6.37;2.50;;;9.20;99.90;;;;;;5038063;28;20059;-76
2023/12/31 10:15:11;;;;;;;3.40;2.35;;;9.10;99.90;;;;;;5048647;28;20542;-75
2023/12/31 10:17:39;;;;;;;4.40;2.42;;;9.20;99.90;;;;;;5039371;28;20106;-76
2023/12/31 10:20:07;;;;;;;9.93;4.95;;;9.20;99.90;;;;;;5041279;28;20049;-76
2023/12/31 10:22:35;;;;;;;5.35;2.90;;;9.20;99.90;;;;;;5034678;28;20464;-75
2023/12/31 10:25:13;;;;;;;6.05;3.63;;;9.20;99.90;;;;;;5048518;28;20111;-76
2023/12/31 10:27:43;;;;;;;5.40;3.80;;;9.20;99.90;;;;;;5050131;28;20049;-74
2023/12/31 10:30:11;;;;;;;6.05;2.50;;;9.30;99.90;;;;;;5034972;28;20049;-77
2023/12/31 10:32:38;;;;;;;4.75;2.50;;;9.40;99.90;;;;;;5043158;28;20049;-74
2023/12/31 10:35:06;;;;;;;5.95;4.30;;;9.50;99.90;;;;;;5035414;28;20057;-75
2023/12/31 10:37:34;;;;;;;14.60;10.07;;;9.60;99.90;;;;;;5015242;28;20508;-73
2023/12/31 10:40:17;;;;;;;5.20;3.20;;;9.60;99.90;;;;;;5035635;28;20041;-72
2023/12/31 10:42:49;;;;;;;6.72;4.97;;;9.60;99.90;;;;;;5031343;28;20101;-73
2023/12/31 10:45:18;;;;;;;4.78;3.65;;;9.60;99.90;;;;;;5047030;28;20124;-72
2023/12/31 10:47:45;;;;;;;5.82;4.60;;;9.60;99.90;;;;;;5032550;28;20100;-73
2023/12/31 10:50:17;;;;;;;10.80;8.68;;;9.60;99.90;;;;;;5033098;28;20217;-73
2023/12/31 10:52:45;;;;;;;15.65;10.07;;;9.60;99.90;;;;;;5030783;28;20057;-73
2023/12/31 10:55:14;;;;;;;4.85;2.83;;;9.60;99.90;;;;;;5034972;28;20060;-72
2023/12/31 10:57:42;;;;;;;5.32;3.28;;;9.60;99.90;;;;;;5038109;28;20112;-73
2023/12/31 11:00:12;;;;;;;7.20;3.65;;;9.70;99.90;;;;;;5039697;28;20052;-72
2023/12/31 11:02:39;;;;;;;5.07;3.63;;;9.70;99.90;;;;;;5040284;28;20053;-74
2023/12/31 11:05:07;;;;;;;5.03;3.20;;;9.80;99.90;;;;;;5034221;28;20399;-73
2023/12/31 11:07:35;;;;;;;6.88;3.33;;;9.70;99.90;;;;;;5028974;28;20056;-73
2023/12/31 11:10:02;;;;;;;5.43;3.55;;;9.70;99.90;;;;;;5031740;28;20059;-73
2023/12/31 11:12:29;;;;;;;7.95;6.28;;;9.60;99.90;;;;;;5030473;28;20055;-73
2023/12/31 11:14:59;;;;;;;6.10;3.97;;;9.60;99.90;;;;;;5040281;28;20099;-74
2023/12/31 11:17:44;;;;;;;8.43;6.82;;;9.40;99.90;;;;;;5029803;28;20041;-74
2023/12/31 11:20:28;;;;;;;11.60;7.55;;;9.40;99.90;;;;;;5031474;28;20084;-74
2023/12/31 11:23:02;;;;;;;8.50;6.72;;;9.30;99.90;;;;;;5033718;28;20123;-74
2023/12/31 11:25:31;;;;;;;11.65;10.32;;;9.20;99.90;;;;;;5039123;28;20065;-71
2023/12/31 11:27:59;;;;;;;17.15;14.23;;;9.20;99.90;;;;;;5031408;28;20045;-73
2023/12/31 11:30:45;;;;;;;7.40;4.70;;;9.20;99.90;;;;;;5030743;28;20485;-72
2023/12/31 11:33:16;;;;;;;26.33;20.10;;;9.20;99.90;;;;;;5033944;28;20424;-72
2023/12/31 11:35:43;;;;;;;;;;;9.10;99.90;;;;;;5040215;28;20050;-72
2023/12/31 11:38:10;;;;;;;12.05;8.93;;;9.00;99.90;;;;;;5033633;28;19921;-71
2023/12/31 11:40:37;;;;;;;12.45;9.07;;;8.90;99.90;;;;;;5031487;28;20049;-72
2023/12/31 11:43:11;;;;;;;5.95;3.42;;;8.80;99.90;;;;;;5035147;28;20585;-73
2023/12/31 11:45:45;;;;;;;4.72;2.63;;;8.70;99.90;;;;;;5030518;28;20053;-74
2023/12/31 11:48:31;;;;;;;5.80;4.03;;;8.60;99.90;;;;;;5033948;28;20053;-73
2023/12/31 11:51:01;;;;;;;3.00;1.70;;;8.50;99.90;;;;;;5049009;28;20056;-73
2023/12/31 11:53:30;;;;;;;6.15;2.20;;;8.40;99.90;;;;;;5039102;28;20052;-72
2023/12/31 11:55:58;;;;;;;2.95;1.77;;;8.30;99.90;;;;;;5038809;28;20049;-74
2023/12/31 11:58:27;;;;;;;6.47;4.18;;;8.10;99.90;;;;;;5038112;28;20096;-72
2023/12/31 12:00:54;;;;;;;2.53;1.60;;;8.00;99.90;;;;;;5036402;28;20053;-73
2023/12/31 12:03:21;;;;;;;5.05;2.58;;;7.90;99.90;;;;;;5042958;28;20049;-73
2023/12/31 12:05:51;;;;;;;1.63;1.00;;;7.80;99.90;;;;;;5036260;28;20378;-73
2023/12/31 12:08:18;;;;;;;3.53;1.00;;;7.80;99.90;;;;;;5046586;28;20053;-72
2023/12/31 12:10:45;;;;;;;7.15;4.65;;;7.70;99.90;;;;;;5038970;28;20053;-73
2023/12/31 12:13:12;;;;;;;5.10;2.53;;;7.60;99.90;;;;;;5043690;28;20500;-73
2023/12/31 12:15:39;;;;;;;4.13;2.63;;;7.50;99.90;;;;;;5048757;28;20051;-73
2023/12/31 12:18:18;;;;;;;7.05;4.53;;;7.50;99.90;;;;;;5049664;28;20508;-73
2023/12/31 12:20:45;;;;;;;7.13;6.15;;;7.50;99.90;;;;;;5035185;28;20084;-73
2023/12/31 12:23:16;;;;;;;8.68;5.80;;;7.50;99.90;;;;;;5038006;28;20409;-73
2023/12/31 12:25:44;;;;;;;8.45;6.68;;;7.60;99.90;;;;;;5037398;28;20115;-73
2023/12/31 12:28:12;;;;;;;4.45;3.30;;;7.80;99.90;;;;;;5034052;28;20519;-72
2023/12/31 12:30:40;;;;;;;6.30;3.38;;;8.00;99.90;;;;;;5036920;28;20056;-73
2023/12/31 12:33:08;;;;;;;2.80;1.92;;;8.90;99.90;;;;;;5037492;28;20451;-73
2023/12/31 12:35:37;;;;;;;8.13;5.95;;;9.20;99.90;;;;;;5044108;28;20049;-73
2023/12/31 12:38:05;;;;;;;8.43;5.30;;;9.20;99.90;;;;;;5046076;28;20056;-73
2023/12/31 12:40:33;;;;;;;7.82;5.35;;;9.20;99.90;;;;;;5050893;28;20053;-73
2023/12/31 12:43:02;;;;;;;20.90;15.65;;;9.20;99.90;;;;;;5043568;28;20808;-72
2023/12/31 12:45:29;;;;;;;20.92;16.35;;;9.20;99.90;;;;;;5041882;28;20052;-72
2023/12/31 12:47:59;;;;;;;20.92;18.27;;;9.10;99.90;;;;;;5044428;28;20582;-71
2023/12/31 12:50:26;;;;;;;16.65;12.50;;;9.00;99.90;;;;;;5041364;28;20084;-71
2023/12/31 12:52:53;;;;;;;3.92;2.63;;;9.00;99.90;;;;;;5041480;28;20085;-70
2023/12/31 12:55:20;;;;;;;14.30;10.38;;;9.10;99.90;;;;;;5044834;28;20053;-70
2023/12/31 12:57:49;;;;;;;10.25;9.15;;;9.40;99.90;;;;;;5036624;28;20135;-71